San Diego International Airport
KSAN : now visible

Airfield :











YOU CAN JOIN US ON...

 
LOGIN :

Register | Disclaimer

   EN    FR    IT 

 









Legend :    VFR   Marginal VFR   IFR   Intensive IFR   Very Intensive IFR
Visi :
Ceiling :
>= 8 km
>= 3000ft
5 to 8 km
1000 to 3000 ft
1500m to 5 km
500 to 1000 ft
800 to 1500m
200 to 500 ft
< 800m
< 200 ft
Symbols :   Thunderstorms  Fog  Heavy snow  Heavy precipitations  Wind > 20 kt






- Airport Elevation : 17 ft
- IATA code : SAN


KSAN - San Diego International

CURRENT METAR :
  • 130451Z 00000KT 10SM BKN150 BKN200 21/17 A2992 RMK AO2 SLP132 T02110167

EXPIRED METARs :
  • 130351Z 31004KT 10SM BKN150 BKN200 21/17 A2990 RMK AO2 SLP125 T02060167
  • 130251Z 30004KT 10SM BKN150 BKN200 22/16 A2989 RMK AO2 SLP119 T02170161 53003

TAF KSAN
Valid from the 13 at 03:00 until the 14 at 06:00 UTC


130255Z 1303/1406 VRB04KT P6SM BKN180
FM131200 VRB04KT 6SM BR SCT004 BKN150
FM131900 29010KT P6SM BKN250
FM140300 VRB04KT P6SM SCT250
KZLA FIR / North America



MET'MAP, your aeronautical weather chart ! - Copyright ORBIFLY December 2007 - Disclaimer

ORBIFLY MET'MAP TEAM :

Programming & Development : Alexandra Zaïnal
Concept & original design : Baudouin d'Aumeries
Assistance for programming : Marc-Olivier Méhu
Technical & hardware support : Manuel Goepfert

Contact : metmap@orbifly.com




SOURCES & CREDITS :

   NOAA       Earth
Advisory